sensor_id;sensor_type;location;lat;lon;timestamp;P1;durP1;ratioP1;P2;durP2;ratioP2
71391;SDS011;59205;50.610;12.638;2022-10-19T00:03:34;58.60;;;23.15;;
71391;SDS011;59205;50.610;12.638;2022-10-19T00:06:08;64.22;;;22.83;;
71391;SDS011;59205;50.610;12.638;2022-10-19T00:08:38;68.00;;;26.00;;
71391;SDS011;59205;50.610;12.638;2022-10-19T00:11:03;62.80;;;22.95;;
71391;SDS011;59205;50.610;12.638;2022-10-19T00:13:29;59.80;;;24.20;;
71391;SDS011;59205;50.610;12.638;2022-10-19T00:15:54;59.85;;;23.55;;
71391;SDS011;59205;50.610;12.638;2022-10-19T00:18:20;58.65;;;22.90;;
71391;SDS011;59205;50.610;12.638;2022-10-19T00:20:45;62.58;;;22.27;;
71391;SDS011;59205;50.610;12.638;2022-10-19T00:23:10;53.40;;;22.88;;
71391;SDS011;59205;50.610;12.638;2022-10-19T00:25:36;54.63;;;21.55;;
71391;SDS011;59205;50.610;12.638;2022-10-19T00:28:02;52.17;;;20.52;;
71391;SDS011;59205;50.610;12.638;2022-10-19T00:30:28;49.20;;;20.85;;
71391;SDS011;59205;50.610;12.638;2022-10-19T00:32:53;47.83;;;19.77;;
71391;SDS011;59205;50.610;12.638;2022-10-19T00:35:18;41.55;;;17.00;;
71391;SDS011;59205;50.610;12.638;2022-10-19T00:37:44;38.28;;;17.17;;
71391;SDS011;59205;50.610;12.638;2022-10-19T00:40:09;42.35;;;18.80;;
71391;SDS011;59205;50.610;12.638;2022-10-19T00:42:35;47.40;;;20.17;;
71391;SDS011;59205;50.610;12.638;2022-10-19T00:45:02;51.40;;;21.08;;
71391;SDS011;59205;50.610;12.638;2022-10-19T00:47:35;54.25;;;22.33;;
71391;SDS011;59205;50.610;12.638;2022-10-19T00:50:00;52.58;;;22.77;;
71391;SDS011;59205;50.610;12.638;2022-10-19T00:52:27;60.65;;;23.80;;
71391;SDS011;59205;50.610;12.638;2022-10-19T00:54:54;58.70;;;25.20;;
71391;SDS011;59205;50.610;12.638;2022-10-19T00:57:22;64.13;;;25.23;;
71391;SDS011;59205;50.610;12.638;2022-10-19T00:59:51;66.60;;;26.27;;
71391;SDS011;59205;50.610;12.638;2022-10-19T01:02:16;66.32;;;28.20;;
71391;SDS011;59205;50.610;12.638;2022-10-19T01:04:43;75.93;;;28.67;;
71391;SDS011;59205;50.610;12.638;2022-10-19T01:09:37;71.45;;;28.60;;
71391;SDS011;59205;50.610;12.638;2022-10-19T01:31:07;56.47;;;24.58;;
71391;SDS011;59205;50.610;12.638;2022-10-19T01:33:57;60.38;;;24.30;;
71391;SDS011;59205;50.610;12.638;2022-10-19T01:47:35;55.05;;;20.92;;
71391;SDS011;59205;50.610;12.638;2022-10-19T01:50:22;56.22;;;20.27;;
71391;SDS011;59205;50.610;12.638;2022-10-19T01:52:55;52.50;;;19.55;;
71391;SDS011;59205;50.610;12.638;2022-10-19T01:55:21;43.78;;;17.13;;
71391;SDS011;59205;50.610;12.638;2022-10-19T01:57:51;44.83;;;17.45;;
71391;SDS011;59205;50.610;12.638;2022-10-19T02:00:23;42.25;;;17.30;;
71391;SDS011;59205;50.610;12.638;2022-10-19T02:02:52;46.85;;;17.95;;
71391;SDS011;59205;50.610;12.638;2022-10-19T02:05:19;49.53;;;18.88;;
71391;SDS011;59205;50.610;12.638;2022-10-19T02:07:52;51.42;;;19.17;;
71391;SDS011;59205;50.610;12.638;2022-10-19T02:10:22;57.92;;;18.77;;
71391;SDS011;59205;50.610;12.638;2022-10-19T02:12:48;52.25;;;19.70;;
71391;SDS011;59205;50.610;12.638;2022-10-19T02:15:17;48.25;;;20.20;;
71391;SDS011;59205;50.610;12.638;2022-10-19T02:17:45;47.53;;;19.92;;
71391;SDS011;59205;50.610;12.638;2022-10-19T02:20:14;54.00;;;20.45;;
71391;SDS011;59205;50.610;12.638;2022-10-19T02:22:41;53.58;;;20.27;;
71391;SDS011;59205;50.610;12.638;2022-10-19T02:25:07;51.10;;;20.92;;
71391;SDS011;59205;50.610;12.638;2022-10-19T02:27:33;44.58;;;19.00;;
71391;SDS011;59205;50.610;12.638;2022-10-19T02:30:00;51.65;;;19.48;;
71391;SDS011;59205;50.610;12.638;2022-10-19T02:32:26;46.30;;;18.83;;
71391;SDS011;59205;50.610;12.638;2022-10-19T02:34:52;38.05;;;16.60;;
71391;SDS011;59205;50.610;12.638;2022-10-19T02:37:18;39.03;;;15.82;;
71391;SDS011;59205;50.610;12.638;2022-10-19T02:39:44;40.75;;;15.82;;
71391;SDS011;59205;50.610;12.638;2022-10-19T02:42:11;39.58;;;15.88;;
71391;SDS011;59205;50.610;12.638;2022-10-19T02:47:36;33.35;;;15.70;;
71391;SDS011;59205;50.610;12.638;2022-10-19T02:50:06;35.05;;;15.55;;
71391;SDS011;59205;50.610;12.638;2022-10-19T02:52:35;37.58;;;15.88;;
71391;SDS011;59205;50.610;12.638;2022-10-19T02:55:03;40.85;;;17.40;;
71391;SDS011;59205;50.610;12.638;2022-10-19T02:57:30;41.72;;;17.20;;
71391;SDS011;59205;50.610;12.638;2022-10-19T02:59:56;35.75;;;16.05;;
71391;SDS011;59205;50.610;12.638;2022-10-19T03:02:22;38.33;;;16.25;;
71391;SDS011;59205;50.610;12.638;2022-10-19T03:04:48;39.67;;;16.48;;
71391;SDS011;59205;50.610;12.638;2022-10-19T03:07:15;45.50;;;17.17;;
71391;SDS011;59205;50.610;12.638;2022-10-19T03:09:42;45.38;;;17.40;;
71391;SDS011;59205;50.610;12.638;2022-10-19T03:12:09;45.60;;;17.50;;
71391;SDS011;59205;50.610;12.638;2022-10-19T03:14:35;37.47;;;16.90;;
71391;SDS011;59205;50.610;12.638;2022-10-19T03:17:01;44.58;;;17.30;;
71391;SDS011;59205;50.610;12.638;2022-10-19T03:19:27;41.22;;;18.00;;
71391;SDS011;59205;50.610;12.638;2022-10-19T03:21:53;42.08;;;17.67;;
71391;SDS011;59205;50.610;12.638;2022-10-19T03:24:18;42.40;;;18.25;;
71391;SDS011;59205;50.610;12.638;2022-10-19T03:26:44;47.35;;;18.50;;
71391;SDS011;59205;50.610;12.638;2022-10-19T03:29:10;49.78;;;18.33;;
71391;SDS011;59205;50.610;12.638;2022-10-19T03:31:35;47.88;;;19.27;;
71391;SDS011;59205;50.610;12.638;2022-10-19T03:34:01;48.45;;;18.85;;
71391;SDS011;59205;50.610;12.638;2022-10-19T03:36:28;54.25;;;20.50;;
71391;SDS011;59205;50.610;12.638;2022-10-19T03:38:56;60.08;;;21.40;;
71391;SDS011;59205;50.610;12.638;2022-10-19T03:41:24;61.10;;;22.52;;
71391;SDS011;59205;50.610;12.638;2022-10-19T03:43:51;60.78;;;22.13;;
71391;SDS011;59205;50.610;12.638;2022-10-19T03:46:16;64.95;;;22.27;;
71391;SDS011;59205;50.610;12.638;2022-10-19T03:48:41;65.28;;;22.60;;
71391;SDS011;59205;50.610;12.638;2022-10-19T03:51:11;66.50;;;22.83;;
71391;SDS011;59205;50.610;12.638;2022-10-19T03:53:38;68.22;;;24.98;;
71391;SDS011;59205;50.610;12.638;2022-10-19T03:56:11;72.93;;;24.67;;
71391;SDS011;59205;50.610;12.638;2022-10-19T03:58:38;59.90;;;22.92;;
71391;SDS011;59205;50.610;12.638;2022-10-19T04:01:06;67.95;;;23.30;;
71391;SDS011;59205;50.610;12.638;2022-10-19T04:03:33;64.82;;;22.38;;
71391;SDS011;59205;50.610;12.638;2022-10-19T04:06:05;75.88;;;23.42;;
71391;SDS011;59205;50.610;12.638;2022-10-19T04:08:32;202.07;;;109.97;;
71391;SDS011;59205;50.610;12.638;2022-10-19T04:10:59;64.93;;;24.38;;
71391;SDS011;59205;50.610;12.638;2022-10-19T04:13:25;67.93;;;24.60;;
71391;SDS011;59205;50.610;12.638;2022-10-19T04:15:51;72.90;;;25.70;;
71391;SDS011;59205;50.610;12.638;2022-10-19T04:18:16;70.53;;;25.73;;
71391;SDS011;59205;50.610;12.638;2022-10-19T04:20:41;80.22;;;26.48;;
71391;SDS011;59205;50.610;12.638;2022-10-19T04:23:07;72.63;;;26.70;;
71391;SDS011;59205;50.610;12.638;2022-10-19T04:25:33;71.80;;;25.30;;
71391;SDS011;59205;50.610;12.638;2022-10-19T04:27:58;69.75;;;25.70;;
71391;SDS011;59205;50.610;12.638;2022-10-19T04:30:24;72.65;;;25.73;;
71391;SDS011;59205;50.610;12.638;2022-10-19T04:32:49;70.90;;;25.25;;
71391;SDS011;59205;50.610;12.638;2022-10-19T04:35:14;72.00;;;26.98;;
71391;SDS011;59205;50.610;12.638;2022-10-19T04:37:40;60.95;;;24.40;;
71391;SDS011;59205;50.610;12.638;2022-10-19T04:40:05;66.30;;;25.88;;
71391;SDS011;59205;50.610;12.638;2022-10-19T04:42:31;67.15;;;25.88;;
71391;SDS011;59205;50.610;12.638;2022-10-19T04:44:57;68.53;;;26.25;;
71391;SDS011;59205;50.610;12.638;2022-10-19T04:47:22;71.25;;;25.52;;
71391;SDS011;59205;50.610;12.638;2022-10-19T04:49:48;59.85;;;24.52;;
71391;SDS011;59205;50.610;12.638;2022-10-19T04:52:13;60.35;;;23.80;;
71391;SDS011;59205;50.610;12.638;2022-10-19T04:54:39;56.42;;;23.98;;
71391;SDS011;59205;50.610;12.638;2022-10-19T04:57:04;54.75;;;22.55;;
71391;SDS011;59205;50.610;12.638;2022-10-19T04:59:29;59.47;;;23.17;;
71391;SDS011;59205;50.610;12.638;2022-10-19T05:01:55;51.13;;;21.33;;
71391;SDS011;59205;50.610;12.638;2022-10-19T05:04:20;54.70;;;21.27;;
71391;SDS011;59205;50.610;12.638;2022-10-19T05:06:45;54.25;;;22.25;;
71391;SDS011;59205;50.610;12.638;2022-10-19T05:09:11;50.20;;;21.50;;
71391;SDS011;59205;50.610;12.638;2022-10-19T05:11:36;48.65;;;21.88;;
71391;SDS011;59205;50.610;12.638;2022-10-19T05:14:02;49.58;;;22.83;;
71391;SDS011;59205;50.610;12.638;2022-10-19T05:16:27;45.80;;;21.77;;
71391;SDS011;59205;50.610;12.638;2022-10-19T05:18:53;52.65;;;23.23;;
71391;SDS011;59205;50.610;12.638;2022-10-19T05:21:23;52.08;;;23.33;;
71391;SDS011;59205;50.610;12.638;2022-10-19T05:23:51;58.25;;;27.33;;
71391;SDS011;59205;50.610;12.638;2022-10-19T05:26:19;61.53;;;26.77;;
71391;SDS011;59205;50.610;12.638;2022-10-19T05:28:46;58.50;;;25.55;;
71391;SDS011;59205;50.610;12.638;2022-10-19T05:31:15;57.88;;;25.58;;
71391;SDS011;59205;50.610;12.638;2022-10-19T05:36:21;46.28;;;23.20;;
71391;SDS011;59205;50.610;12.638;2022-10-19T05:38:49;50.58;;;22.60;;
71391;SDS011;59205;50.610;12.638;2022-10-19T05:41:17;39.65;;;20.52;;
71391;SDS011;59205;50.610;12.638;2022-10-19T05:43:43;51.03;;;21.02;;
71391;SDS011;59205;50.610;12.638;2022-10-19T05:46:11;43.90;;;21.60;;
71391;SDS011;59205;50.610;12.638;2022-10-19T05:48:39;46.53;;;22.40;;
71391;SDS011;59205;50.610;12.638;2022-10-19T05:51:05;53.20;;;23.55;;
71391;SDS011;59205;50.610;12.638;2022-10-19T05:53:34;48.78;;;23.33;;
71391;SDS011;59205;50.610;12.638;2022-10-19T05:55:59;49.25;;;24.80;;
71391;SDS011;59205;50.610;12.638;2022-10-19T05:58:25;55.53;;;24.38;;
71391;SDS011;59205;50.610;12.638;2022-10-19T06:00:51;55.05;;;25.08;;
71391;SDS011;59205;50.610;12.638;2022-10-19T06:03:21;52.00;;;26.05;;
71391;SDS011;59205;50.610;12.638;2022-10-19T06:05:47;51.15;;;23.13;;
71391;SDS011;59205;50.610;12.638;2022-10-19T06:08:13;50.20;;;24.05;;
71391;SDS011;59205;50.610;12.638;2022-10-19T06:10:40;49.78;;;22.02;;
71391;SDS011;59205;50.610;12.638;2022-10-19T06:13:05;50.83;;;23.23;;
71391;SDS011;59205;50.610;12.638;2022-10-19T06:15:34;44.42;;;23.42;;
71391;SDS011;59205;50.610;12.638;2022-10-19T06:18:02;48.75;;;23.35;;
71391;SDS011;59205;50.610;12.638;2022-10-19T06:20:28;50.80;;;23.60;;
71391;SDS011;59205;50.610;12.638;2022-10-19T06:22:54;44.53;;;24.90;;
71391;SDS011;59205;50.610;12.638;2022-10-19T06:25:19;49.95;;;24.67;;
71391;SDS011;59205;50.610;12.638;2022-10-19T06:27:44;49.00;;;24.55;;
71391;SDS011;59205;50.610;12.638;2022-10-19T06:30:10;44.08;;;21.40;;
71391;SDS011;59205;50.610;12.638;2022-10-19T06:32:36;46.55;;;21.17;;
71391;SDS011;59205;50.610;12.638;2022-10-19T06:35:01;53.65;;;24.48;;
71391;SDS011;59205;50.610;12.638;2022-10-19T06:37:27;43.72;;;22.05;;
71391;SDS011;59205;50.610;12.638;2022-10-19T06:39:52;46.80;;;22.23;;
71391;SDS011;59205;50.610;12.638;2022-10-19T06:42:18;46.97;;;20.85;;
71391;SDS011;59205;50.610;12.638;2022-10-19T06:44:43;42.50;;;20.92;;
71391;SDS011;59205;50.610;12.638;2022-10-19T06:47:10;43.03;;;19.23;;
71391;SDS011;59205;50.610;12.638;2022-10-19T06:49:35;34.03;;;17.52;;
71391;SDS011;59205;50.610;12.638;2022-10-19T06:52:01;23.58;;;14.35;;
71391;SDS011;59205;50.610;12.638;2022-10-19T06:54:27;32.55;;;14.00;;
71391;SDS011;59205;50.610;12.638;2022-10-19T06:56:52;40.72;;;16.52;;
71391;SDS011;59205;50.610;12.638;2022-10-19T06:59:18;28.80;;;12.98;;
71391;SDS011;59205;50.610;12.638;2022-10-19T07:01:43;25.02;;;12.10;;
71391;SDS011;59205;50.610;12.638;2022-10-19T07:04:08;35.63;;;12.90;;
71391;SDS011;59205;50.610;12.638;2022-10-19T07:06:34;26.77;;;11.13;;
71391;SDS011;59205;50.610;12.638;2022-10-19T07:09:01;26.67;;;11.38;;
71391;SDS011;59205;50.610;12.638;2022-10-19T07:11:28;28.70;;;12.27;;
71391;SDS011;59205;50.610;12.638;2022-10-19T07:13:55;30.95;;;15.65;;
71391;SDS011;59205;50.610;12.638;2022-10-19T07:16:20;28.35;;;13.98;;
71391;SDS011;59205;50.610;12.638;2022-10-19T07:18:46;24.77;;;13.63;;
71391;SDS011;59205;50.610;12.638;2022-10-19T07:21:13;26.65;;;13.95;;
71391;SDS011;59205;50.610;12.638;2022-10-19T07:23:40;28.02;;;11.38;;
71391;SDS011;59205;50.610;12.638;2022-10-19T07:26:09;24.15;;;9.27;;
71391;SDS011;59205;50.610;12.638;2022-10-19T07:28:40;22.20;;;9.57;;
71391;SDS011;59205;50.610;12.638;2022-10-19T07:31:08;25.33;;;9.93;;
71391;SDS011;59205;50.610;12.638;2022-10-19T07:33:35;21.38;;;9.48;;
71391;SDS011;59205;50.610;12.638;2022-10-19T07:36:02;22.00;;;8.68;;
71391;SDS011;59205;50.610;12.638;2022-10-19T07:38:30;30.50;;;12.10;;
71391;SDS011;59205;50.610;12.638;2022-10-19T07:41:06;22.35;;;7.22;;
71391;SDS011;59205;50.610;12.638;2022-10-19T07:43:39;14.00;;;5.78;;
71391;SDS011;59205;50.610;12.638;2022-10-19T07:46:06;12.35;;;6.10;;
71391;SDS011;59205;50.610;12.638;2022-10-19T07:48:34;11.57;;;5.57;;
71391;SDS011;59205;50.610;12.638;2022-10-19T07:51:01;12.40;;;5.63;;
71391;SDS011;59205;50.610;12.638;2022-10-19T07:53:27;15.25;;;5.00;;
71391;SDS011;59205;50.610;12.638;2022-10-19T07:55:53;16.77;;;4.88;;
71391;SDS011;59205;50.610;12.638;2022-10-19T07:58:18;13.77;;;4.65;;
71391;SDS011;59205;50.610;12.638;2022-10-19T08:00:44;14.40;;;4.38;;
71391;SDS011;59205;50.610;12.638;2022-10-19T08:03:10;12.07;;;4.40;;
71391;SDS011;59205;50.610;12.638;2022-10-19T08:05:35;10.35;;;4.03;;
71391;SDS011;59205;50.610;12.638;2022-10-19T08:08:01;12.40;;;3.50;;
71391;SDS011;59205;50.610;12.638;2022-10-19T08:10:27;8.93;;;2.83;;
71391;SDS011;59205;50.610;12.638;2022-10-19T08:12:52;11.23;;;3.40;;
71391;SDS011;59205;50.610;12.638;2022-10-19T08:15:18;12.43;;;4.10;;
71391;SDS011;59205;50.610;12.638;2022-10-19T08:17:43;16.60;;;3.40;;
71391;SDS011;59205;50.610;12.638;2022-10-19T08:20:09;8.27;;;3.08;;
71391;SDS011;59205;50.610;12.638;2022-10-19T08:22:34;9.70;;;3.47;;
71391;SDS011;59205;50.610;12.638;2022-10-19T08:25:00;8.93;;;3.20;;
71391;SDS011;59205;50.610;12.638;2022-10-19T08:27:26;9.27;;;3.38;;
71391;SDS011;59205;50.610;12.638;2022-10-19T08:29:51;9.57;;;3.00;;
71391;SDS011;59205;50.610;12.638;2022-10-19T08:32:17;10.63;;;3.83;;
71391;SDS011;59205;50.610;12.638;2022-10-19T08:34:43;9.45;;;3.53;;
71391;SDS011;59205;50.610;12.638;2022-10-19T08:37:09;10.63;;;3.95;;
71391;SDS011;59205;50.610;12.638;2022-10-19T08:39:34;11.93;;;3.92;;
71391;SDS011;59205;50.610;12.638;2022-10-19T08:42:01;7.43;;;2.65;;
71391;SDS011;59205;50.610;12.638;2022-10-19T08:49:44;5.70;;;2.20;;
71391;SDS011;59205;50.610;12.638;2022-10-19T08:52:11;6.45;;;2.10;;
71391;SDS011;59205;50.610;12.638;2022-10-19T09:00:11;8.30;;;1.70;;
71391;SDS011;59205;50.610;12.638;2022-10-19T09:05:49;7.47;;;1.77;;
71391;SDS011;59205;50.610;12.638;2022-10-19T09:08:20;7.10;;;1.75;;
71391;SDS011;59205;50.610;12.638;2022-10-19T09:10:48;7.78;;;1.80;;
71391;SDS011;59205;50.610;12.638;2022-10-19T09:13:32;10.05;;;2.17;;
71391;SDS011;59205;50.610;12.638;2022-10-19T09:16:01;10.82;;;1.88;;
71391;SDS011;59205;50.610;12.638;2022-10-19T09:18:29;8.68;;;2.00;;
71391;SDS011;59205;50.610;12.638;2022-10-19T09:23:42;9.43;;;1.67;;
71391;SDS011;59205;50.610;12.638;2022-10-19T09:26:16;5.57;;;1.50;;
71391;SDS011;59205;50.610;12.638;2022-10-19T09:28:53;8.48;;;1.88;;
71391;SDS011;59205;50.610;12.638;2022-10-19T09:31:32;6.80;;;1.83;;
71391;SDS011;59205;50.610;12.638;2022-10-19T09:34:02;8.57;;;1.60;;
71391;SDS011;59205;50.610;12.638;2022-10-19T09:36:37;8.73;;;2.08;;
71391;SDS011;59205;50.610;12.638;2022-10-19T09:39:05;11.80;;;1.90;;
71391;SDS011;59205;50.610;12.638;2022-10-19T09:41:36;8.18;;;2.30;;
71391;SDS011;59205;50.610;12.638;2022-10-19T09:44:11;6.18;;;2.33;;
71391;SDS011;59205;50.610;12.638;2022-10-19T09:49:16;7.20;;;2.03;;
71391;SDS011;59205;50.610;12.638;2022-10-19T09:51:48;9.75;;;2.10;;
71391;SDS011;59205;50.610;12.638;2022-10-19T09:54:35;8.60;;;2.20;;
71391;SDS011;59205;50.610;12.638;2022-10-19T09:57:03;6.90;;;1.80;;
71391;SDS011;59205;50.610;12.638;2022-10-19T09:59:30;8.38;;;4.38;;
71391;SDS011;59205;50.610;12.638;2022-10-19T10:02:01;6.78;;;2.40;;
71391;SDS011;59205;50.610;12.638;2022-10-19T10:05:02;10.48;;;2.50;;
71391;SDS011;59205;50.610;12.638;2022-10-19T10:07:34;8.20;;;2.50;;
71391;SDS011;59205;50.610;12.638;2022-10-19T10:12:43;6.53;;;1.90;;
71391;SDS011;59205;50.610;12.638;2022-10-19T10:15:14;9.90;;;2.20;;
71391;SDS011;59205;50.610;12.638;2022-10-19T10:17:43;6.55;;;1.88;;
71391;SDS011;59205;50.610;12.638;2022-10-19T10:22:50;8.20;;;1.77;;
71391;SDS011;59205;50.610;12.638;2022-10-19T10:25:25;5.80;;;1.40;;
71391;SDS011;59205;50.610;12.638;2022-10-19T10:27:55;4.22;;;1.20;;
71391;SDS011;59205;50.610;12.638;2022-10-19T10:30:41;2.45;;;1.08;;
71391;SDS011;59205;50.610;12.638;2022-10-19T10:33:14;6.82;;;1.60;;
71391;SDS011;59205;50.610;12.638;2022-10-19T10:35:41;4.22;;;1.27;;
71391;SDS011;59205;50.610;12.638;2022-10-19T10:38:17;4.88;;;1.35;;
71391;SDS011;59205;50.610;12.638;2022-10-19T10:40:55;5.10;;;1.02;;
71391;SDS011;59205;50.610;12.638;2022-10-19T10:43:30;3.95;;;1.20;;
71391;SDS011;59205;50.610;12.638;2022-10-19T10:46:07;3.50;;;1.10;;
71391;SDS011;59205;50.610;12.638;2022-10-19T10:48:44;5.93;;;1.20;;
71391;SDS011;59205;50.610;12.638;2022-10-19T10:51:36;4.38;;;1.20;;
71391;SDS011;59205;50.610;12.638;2022-10-19T10:54:10;4.05;;;1.33;;
71391;SDS011;59205;50.610;12.638;2022-10-19T10:56:39;3.33;;;1.00;;
71391;SDS011;59205;50.610;12.638;2022-10-19T10:59:11;5.43;;;1.30;;
71391;SDS011;59205;50.610;12.638;2022-10-19T11:01:43;5.03;;;1.33;;
71391;SDS011;59205;50.610;12.638;2022-10-19T11:04:21;4.68;;;1.10;;
71391;SDS011;59205;50.610;12.638;2022-10-19T11:07:00;6.60;;;1.50;;
71391;SDS011;59205;50.610;12.638;2022-10-19T11:09:45;7.47;;;1.27;;
71391;SDS011;59205;50.610;12.638;2022-10-19T11:12:17;4.88;;;1.20;;
71391;SDS011;59205;50.610;12.638;2022-10-19T11:14:53;5.80;;;2.30;;
71391;SDS011;59205;50.610;12.638;2022-10-19T11:17:26;5.88;;;1.52;;
71391;SDS011;59205;50.610;12.638;2022-10-19T11:19:54;4.82;;;1.30;;
71391;SDS011;59205;50.610;12.638;2022-10-19T11:22:27;4.70;;;1.20;;
71391;SDS011;59205;50.610;12.638;2022-10-19T11:27:59;5.68;;;1.30;;
71391;SDS011;59205;50.610;12.638;2022-10-19T11:30:29;2.85;;;1.13;;
71391;SDS011;59205;50.610;12.638;2022-10-19T11:33:05;4.65;;;1.48;;
71391;SDS011;59205;50.610;12.638;2022-10-19T11:38:29;6.07;;;1.40;;
71391;SDS011;59205;50.610;12.638;2022-10-19T11:52:25;3.78;;;1.02;;
71391;SDS011;59205;50.610;12.638;2022-10-19T11:55:14;4.78;;;1.33;;
71391;SDS011;59205;50.610;12.638;2022-10-19T11:57:57;7.60;;;1.42;;
71391;SDS011;59205;50.610;12.638;2022-10-19T12:01:00;2.55;;;1.30;;
71391;SDS011;59205;50.610;12.638;2022-10-19T12:14:15;6.40;;;1.60;;
71391;SDS011;59205;50.610;12.638;2022-10-19T12:16:45;3.65;;;1.40;;
71391;SDS011;59205;50.610;12.638;2022-10-19T12:19:21;6.45;;;1.58;;
71391;SDS011;59205;50.610;12.638;2022-10-19T12:21:50;5.40;;;1.52;;
71391;SDS011;59205;50.610;12.638;2022-10-19T12:24:20;3.93;;;1.50;;
71391;SDS011;59205;50.610;12.638;2022-10-19T12:26:52;4.43;;;1.70;;
71391;SDS011;59205;50.610;12.638;2022-10-19T12:29:28;6.63;;;1.88;;
71391;SDS011;59205;50.610;12.638;2022-10-19T12:31:58;5.73;;;2.00;;
71391;SDS011;59205;50.610;12.638;2022-10-19T12:34:30;6.20;;;2.17;;
71391;SDS011;59205;50.610;12.638;2022-10-19T12:37:19;7.97;;;1.98;;
71391;SDS011;59205;50.610;12.638;2022-10-19T12:42:44;4.85;;;2.13;;
71391;SDS011;59205;50.610;12.638;2022-10-19T12:45:24;4.72;;;2.33;;
71391;SDS011;59205;50.610;12.638;2022-10-19T13:03:51;6.40;;;2.00;;
71391;SDS011;59205;50.610;12.638;2022-10-19T13:06:32;3.10;;;2.08;;
71391;SDS011;59205;50.610;12.638;2022-10-19T13:09:04;4.63;;;2.20;;
71391;SDS011;59205;50.610;12.638;2022-10-19T13:11:32;5.30;;;2.10;;
71391;SDS011;59205;50.610;12.638;2022-10-19T13:29:47;2.80;;;1.90;;
71391;SDS011;59205;50.610;12.638;2022-10-19T13:43:19;3.70;;;1.90;;
71391;SDS011;59205;50.610;12.638;2022-10-19T14:10:35;5.22;;;1.92;;
71391;SDS011;59205;50.610;12.638;2022-10-19T14:13:04;3.28;;;1.90;;
71391;SDS011;59205;50.610;12.638;2022-10-19T14:15:49;2.30;;;1.67;;
71391;SDS011;59205;50.610;12.638;2022-10-19T14:18:21;5.65;;;2.00;;
71391;SDS011;59205;50.610;12.638;2022-10-19T14:20:54;3.85;;;1.88;;
71391;SDS011;59205;50.610;12.638;2022-10-19T14:23:25;5.35;;;1.85;;
71391;SDS011;59205;50.610;12.638;2022-10-19T14:25:59;3.72;;;2.10;;
71391;SDS011;59205;50.610;12.638;2022-10-19T14:28:27;4.40;;;2.30;;
71391;SDS011;59205;50.610;12.638;2022-10-19T14:30:58;4.25;;;2.40;;
71391;SDS011;59205;50.610;12.638;2022-10-19T14:35:51;5.55;;;2.60;;
71391;SDS011;59205;50.610;12.638;2022-10-19T14:38:23;6.22;;;2.60;;
71391;SDS011;59205;50.610;12.638;2022-10-19T14:40:55;3.72;;;2.40;;
71391;SDS011;59205;50.610;12.638;2022-10-19T14:43:25;3.53;;;2.30;;
71391;SDS011;59205;50.610;12.638;2022-10-19T14:48:30;4.55;;;2.80;;
71391;SDS011;59205;50.610;12.638;2022-10-19T14:50:56;6.45;;;2.42;;
71391;SDS011;59205;50.610;12.638;2022-10-19T14:56:22;4.88;;;2.70;;
71391;SDS011;59205;50.610;12.638;2022-10-19T15:01:17;6.18;;;3.10;;
71391;SDS011;59205;50.610;12.638;2022-10-19T15:03:44;4.35;;;2.75;;
71391;SDS011;59205;50.610;12.638;2022-10-19T15:06:17;5.63;;;3.10;;
71391;SDS011;59205;50.610;12.638;2022-10-19T15:08:57;7.25;;;3.20;;
71391;SDS011;59205;50.610;12.638;2022-10-19T15:11:29;4.47;;;2.70;;
71391;SDS011;59205;50.610;12.638;2022-10-19T15:14:23;6.32;;;2.88;;
71391;SDS011;59205;50.610;12.638;2022-10-19T15:16:59;5.10;;;3.00;;
71391;SDS011;59205;50.610;12.638;2022-10-19T15:24:33;4.57;;;3.17;;
71391;SDS011;59205;50.610;12.638;2022-10-19T15:27:09;5.15;;;3.38;;
71391;SDS011;59205;50.610;12.638;2022-10-19T15:29:52;5.82;;;3.38;;
71391;SDS011;59205;50.610;12.638;2022-10-19T15:34:49;5.57;;;3.72;;
71391;SDS011;59205;50.610;12.638;2022-10-19T15:37:16;8.88;;;3.85;;
71391;SDS011;59205;50.610;12.638;2022-10-19T15:42:30;8.85;;;4.00;;
71391;SDS011;59205;50.610;12.638;2022-10-19T15:45:00;6.53;;;3.67;;
71391;SDS011;59205;50.610;12.638;2022-10-19T15:47:25;6.43;;;3.70;;
71391;SDS011;59205;50.610;12.638;2022-10-19T15:52:22;7.93;;;4.20;;
71391;SDS011;59205;50.610;12.638;2022-10-19T15:54:50;6.55;;;4.20;;
71391;SDS011;59205;50.610;12.638;2022-10-19T15:57:20;6.75;;;4.45;;
71391;SDS011;59205;50.610;12.638;2022-10-19T15:59:53;6.35;;;4.60;;
71391;SDS011;59205;50.610;12.638;2022-10-19T16:02:20;7.43;;;5.10;;
71391;SDS011;59205;50.610;12.638;2022-10-19T16:04:48;7.78;;;4.90;;
71391;SDS011;59205;50.610;12.638;2022-10-19T16:07:15;10.52;;;5.57;;
71391;SDS011;59205;50.610;12.638;2022-10-19T16:09:49;8.13;;;5.53;;
71391;SDS011;59205;50.610;12.638;2022-10-19T16:12:15;9.00;;;5.45;;
71391;SDS011;59205;50.610;12.638;2022-10-19T16:14:40;11.27;;;5.53;;
71391;SDS011;59205;50.610;12.638;2022-10-19T16:17:06;11.65;;;5.63;;
71391;SDS011;59205;50.610;12.638;2022-10-19T16:19:31;9.00;;;5.35;;
71391;SDS011;59205;50.610;12.638;2022-10-19T16:21:57;7.88;;;5.88;;
71391;SDS011;59205;50.610;12.638;2022-10-19T16:24:22;52.53;;;32.38;;
71391;SDS011;59205;50.610;12.638;2022-10-19T16:26:47;10.02;;;6.10;;
71391;SDS011;59205;50.610;12.638;2022-10-19T16:29:13;9.65;;;6.15;;
71391;SDS011;59205;50.610;12.638;2022-10-19T16:31:38;19.92;;;8.75;;
71391;SDS011;59205;50.610;12.638;2022-10-19T16:34:04;11.38;;;6.35;;
71391;SDS011;59205;50.610;12.638;2022-10-19T16:36:29;12.55;;;7.20;;
71391;SDS011;59205;50.610;12.638;2022-10-19T16:38:55;13.93;;;8.52;;
71391;SDS011;59205;50.610;12.638;2022-10-19T16:41:20;11.98;;;8.10;;
71391;SDS011;59205;50.610;12.638;2022-10-19T16:43:46;15.93;;;8.70;;
71391;SDS011;59205;50.610;12.638;2022-10-19T16:46:12;13.02;;;8.88;;
71391;SDS011;59205;50.610;12.638;2022-10-19T16:48:38;13.93;;;9.95;;
71391;SDS011;59205;50.610;12.638;2022-10-19T16:53:29;13.52;;;9.35;;
71391;SDS011;59205;50.610;12.638;2022-10-19T16:55:55;13.82;;;9.07;;
71391;SDS011;59205;50.610;12.638;2022-10-19T16:58:28;13.23;;;8.90;;
71391;SDS011;59205;50.610;12.638;2022-10-19T17:00:54;11.48;;;8.27;;
71391;SDS011;59205;50.610;12.638;2022-10-19T17:03:20;10.65;;;8.30;;
71391;SDS011;59205;50.610;12.638;2022-10-19T17:05:46;15.13;;;8.82;;
71391;SDS011;59205;50.610;12.638;2022-10-19T17:08:12;12.73;;;8.50;;
71391;SDS011;59205;50.610;12.638;2022-10-19T17:10:37;10.07;;;8.45;;
71391;SDS011;59205;50.610;12.638;2022-10-19T17:13:03;10.35;;;8.10;;
71391;SDS011;59205;50.610;12.638;2022-10-19T17:15:28;12.23;;;7.95;;
71391;SDS011;59205;50.610;12.638;2022-10-19T17:17:54;9.45;;;7.50;;
71391;SDS011;59205;50.610;12.638;2022-10-19T17:20:21;10.18;;;7.45;;
71391;SDS011;59205;50.610;12.638;2022-10-19T17:22:50;12.30;;;7.80;;
71391;SDS011;59205;50.610;12.638;2022-10-19T17:25:15;11.80;;;7.93;;
71391;SDS011;59205;50.610;12.638;2022-10-19T17:27:41;13.32;;;7.88;;
71391;SDS011;59205;50.610;12.638;2022-10-19T17:30:06;13.65;;;8.30;;
71391;SDS011;59205;50.610;12.638;2022-10-19T17:32:32;11.20;;;7.45;;
71391;SDS011;59205;50.610;12.638;2022-10-19T17:34:57;13.18;;;7.80;;
71391;SDS011;59205;50.610;12.638;2022-10-19T17:37:23;10.32;;;7.90;;
71391;SDS011;59205;50.610;12.638;2022-10-19T17:39:49;12.93;;;8.15;;